D/T METAR WX W/SPE G/SPE TEMP DEWP FEEL
31/01/23 12:50 EGPK 311250Z 27023KT 9999 FEW016 SCT024 07/02 Q1017 26.5mph 7°C 2°C 5.4°C
31/01/23 07:20 EGPK 310720Z 28027G43KT 7000 -RA SCT023 BKN037 07/04 Q1015 -RA 31.1mph 49.5mph 7°C 4°C 6.0°C
31/01/23 04:20 EGPK 310420Z 26016KT 9999 FEW029 BKN048 09/05 Q1015 18.4mph 9°C 5°C 8.3°C
30/01/23 21:50 EGPK 302150Z 22017G27KT 9999 -RA SCT015 BKN020 08/07 Q1018 -RA 19.6mph 31.1mph 8°C 7°C 8.0°C
30/01/23 12:50 EGPK 301250Z 27011KT 9999 FEW020 09/04 Q1022 12.7mph 9°C 4°C 8.0°C
30/01/23 11:50 EGPK 301150Z 27013KT 9999 FEW020 SCT033 08/05 Q1023 15.0mph 8°C 5°C 7.3°C
30/01/23 11:20 EGPK 301120Z 27013KT 9999 FEW023 SCT032 07/04 Q1022 15.0mph 7°C 4°C 6.0°C
30/01/23 10:50 EGPK 301050Z 25006KT 210V280 9999 FEW022 SCT031 08/05 Q1022 6.9mph 8°C 5°C 7.3°C
30/01/23 09:50 EGPK 300950Z VRB02KT 9999 FEW018 SCT030 07/05 Q1022 2.3mph 7°C 5°C 6.3°C
30/01/23 07:50 EGPK 300750Z 29022KT 9999 FEW023 SCT033 07/03 Q1020 25.3mph 7°C 3°C 5.7°C
09/01/23 06:20 EGPK 090620Z 27013KT 9000 -RA SCT027 BKN040 07/04 Q0988 -RA 15.0mph 7°C 4°C 6.0°C
09/01/23 05:50 EGPK 090550Z 25011KT 9999 SCT027 SCT040 07/04 Q0988 12.7mph 7°C 4°C 6.0°C
09/01/23 05:20 EGPK 090520Z 28007KT 230V300 9999 FEW027 SCT035 BKN048 07/03 Q0987 8.1mph 7°C 3°C 5.7°C
09/01/23 04:20 EGPK 090420Z 28006KT 240V330 9999 SCT027 BKN034 BKN049 07/04 Q0986 6.9mph 7°C 4°C 6.0°C
09/01/23 03:50 EGPK 090350Z 24010KT 9999 -RA BKN028 BKN035 06/04 Q0985 -RA 11.5mph 6°C 4°C 5.0°C
09/01/23 03:20 EGPK 090320Z 26011KT 9999 -RA FEW015 SCT021 BKN030 06/04 Q0985 -RA 12.7mph 6°C 4°C 5.0°C
09/01/23 02:50 EGPK 090250Z 26013KT 210V280 9999 FEW017 SCT023 BKN035 07/05 Q0984 15.0mph 7°C 5°C 6.3°C
09/01/23 02:20 EGPK 090220Z 24011KT 9999 -RA FEW022 BKN037 06/05 Q0984 -RA 12.7mph 6°C 5°C 5.3°C
09/01/23 01:20 EGPK 090120Z 25014KT 9999 -RA FEW017 SCT022 BKN026 07/05 Q0983 -RA 16.1mph 7°C 5°C 6.3°C
09/01/23 00:50 EGPK 090050Z 25014KT 9999 -RA FEW018 SCT022 07/04 Q0982 -RA 16.1mph 7°C 4°C 6.0°C
09/01/23 00:20 EGPK 090020Z 25017G29KT 9999 -RA SCT018 BKN035 08/05 Q0982 -RA 19.6mph 33.4mph 8°C 5°C 7.3°C
08/01/23 23:50 EGPK 082350Z 25015KT 9999 SCT018 BKN035 08/05 Q0981 17.3mph 8°C 5°C 7.3°C
08/01/23 23:20 EGPK 082320Z 24014KT 9999 FEW021 SCT027 BKN035 07/05 Q0981 16.1mph 7°C 5°C 6.3°C
08/01/23 22:50 EGPK 082250Z 24015KT 9999 FEW021 SCT027 BKN035 08/06 Q0981 17.3mph 8°C 6°C 7.6°C
08/01/23 22:20 EGPK 082220Z 23015KT 9999 FEW021 SCT027 BKN035 08/06 Q0981 17.3mph 8°C 6°C 7.6°C
08/01/23 21:50 EGPK 082150Z 24016KT 9999 -RA FEW021 SCT027 BKN035 08/06 Q0980 -RA 18.4mph 8°C 6°C 7.6°C
08/01/23 20:20 EGPK 082020Z 25017KT 9999 FEW016 SCT039 07/06 Q0979 19.6mph 7°C 6°C 6.6°C
08/01/23 19:50 EGPK 081950Z 25018KT 9000 -RA FEW012 BKN015 07/06 Q0979 -RA 20.7mph 7°C 6°C 6.6°C
08/01/23 18:50 EGPK 081850Z 15009KT 5000 -RADZ FEW007 BKN013 04/03 Q0978 -RA -DZ 10.4mph 4°C 3°C 2.7°C
08/01/23 18:20 EGPK 081820Z 17010KT 8000 -RA SCT012 BKN018 04/03 Q0979 -RA 11.5mph 4°C 3°C 2.7°C
08/01/23 17:50 EGPK 081750Z 20012KT 8000 -RA SCT012 BKN018 04/02 Q0979 -RA 13.8mph 4°C 2°C 2.4°C
08/01/23 17:20 EGPK 081720Z 18013KT 9999 -RA BKN019 05/03 Q0978 -RA 15.0mph 5°C 3°C 3.7°C
08/01/23 16:50 EGPK 081650Z 19015KT 9999 -RA BKN019 05/03 Q0978 -RA 17.3mph 5°C 3°C 3.7°C
08/01/23 16:20 EGPK 081620Z 19015KT 9999 -RA BKN023 06/03 Q0978 -RA 17.3mph 6°C 3°C 4.7°C
08/01/23 15:50 EGPK 081550Z 19014KT 9999 BKN035 06/02 Q0978 16.1mph 6°C 2°C 4.4°C
08/01/23 15:20 EGPK 081520Z 19012KT 9999 BKN032 06/02 Q0978 13.8mph 6°C 2°C 4.4°C
08/01/23 14:20 EGPK 081420Z 19013KT 9999 FEW030 07/01 Q0979 15.0mph 7°C 1°C 5.1°C
08/01/23 13:50 EGPK 081350Z 20015KT 9999 FEW030 07/01 Q0979 17.3mph 7°C 1°C 5.1°C
08/01/23 13:20 EGPK 081320Z 19014KT 9999 FEW030 08/02 Q0979 16.1mph 8°C 2°C 6.4°C
08/01/23 12:50 EGPK 081250Z 19012KT 9999 FEW045 08/02 Q0979 13.8mph 8°C 2°C 6.4°C
08/01/23 12:20 EGPK 081220Z 18009KT 9999 FEW045 08/02 Q0980 10.4mph 8°C 2°C 6.4°C
08/01/23 11:50 EGPK 081150Z 19012KT 9999 FEW045 07/02 Q0980 13.8mph 7°C 2°C 5.4°C
08/01/23 11:20 EGPK 081120Z 20011KT 9999 FEW045 07/02 Q0980 12.7mph 7°C 2°C 5.4°C
08/01/23 10:20 EGPK 081020Z 19011KT 9999 FEW045 06/02 Q0981 12.7mph 6°C 2°C 4.4°C
08/01/23 09:50 EGPK 080950Z 19013KT 9999 FEW044 06/02 Q0980 15.0mph 6°C 2°C 4.4°C
08/01/23 08:50 EGPK 080850Z 17009KT 9999 FEW044 06/02 Q0981 10.4mph 6°C 2°C 4.4°C
08/01/23 08:20 EGPK 080820Z 19014KT 9999 FEW040 06/02 Q0981 16.1mph 6°C 2°C 4.4°C
08/01/23 07:50 EGPK 080750Z 19015KT 9999 FEW040 06/02 Q0980 17.3mph 6°C 2°C 4.4°C
08/01/23 07:20 EGPK 080720Z 19015KT 9999 FEW041 07/02 Q0980 17.3mph 7°C 2°C 5.4°C
08/01/23 06:50 EGPK 080650Z 20015KT 9999 SCT030 07/02 Q0980 17.3mph 7°C 2°C 5.4°C
08/01/23 06:20 EGPK 080620Z 20014KT 9999 SCT030 07/03 Q0980 16.1mph 7°C 3°C 5.7°C
08/01/23 05:50 EGPK 080550Z 20014KT 9999 SCT030 07/02 Q0980 16.1mph 7°C 2°C 5.4°C
08/01/23 05:20 EGPK 080520Z 20013KT 9999 SCT035 07/02 Q0981 15.0mph 7°C 2°C 5.4°C
08/01/23 04:50 EGPK 080450Z 20015KT 9999 SCT035 07/03 Q0981 17.3mph 7°C 3°C 5.7°C
08/01/23 04:20 EGPK 080420Z 20019G31KT 9999 BKN033 08/03 Q0981 21.9mph 35.7mph 8°C 3°C 6.7°C
08/01/23 03:50 EGPK 080350Z 21015KT 9999 SCT035 08/03 Q0981 17.3mph 8°C 3°C 6.7°C
08/01/23 03:20 EGPK 080320Z AUTO 20015KT 9999 FEW035/// BKN044/// 08/03 Q0981 17.3mph 8°C 3°C 6.7°C
08/01/23 02:50 EGPK 080250Z AUTO 20014KT 9999 FEW038/// 08/03 Q0981 16.1mph 8°C 3°C 6.7°C
08/01/23 02:20 EGPK 080220Z AUTO 21016KT 9999 SCT035/// SCT041/// 08/03 Q0981 18.4mph 8°C 3°C 6.7°C
08/01/23 01:50 EGPK 080150Z AUTO 21019KT 9999 FEW042/// 08/04 Q0981 21.9mph 8°C 4°C 7.0°C
08/01/23 01:20 EGPK 080120Z 21020G30KT 9999 -RA FEW034 SCT046 08/04 Q0980 -RA 23.0mph 34.5mph 8°C 4°C 7.0°C
08/01/23 00:20 EGPK 080020Z 21022KT 9999 BKN039 08/04 Q0980 25.3mph 8°C 4°C 7.0°C
07/01/23 23:50 EGPK 072350Z 20021G36KT 9999 BKN038 08/04 Q0979 24.2mph 41.4mph 8°C 4°C 7.0°C
07/01/23 23:20 EGPK 072320Z 20020KT 9999 FEW035 08/04 Q0979 23.0mph 8°C 4°C 7.0°C
07/01/23 22:50 EGPK 072250Z 20022KT 9999 SCT027 BKN035 09/04 Q0979 25.3mph 9°C 4°C 8.0°C
07/01/23 22:20 EGPK 072220Z 19022G32KT 9999 SCT037 08/04 Q0979 25.3mph 36.8mph 8°C 4°C 7.0°C
07/01/23 21:50 EGPK 072150Z 19016KT 9999 SCT037 SCT046 08/04 Q0979 18.4mph 8°C 4°C 7.0°C
07/01/23 21:20 EGPK 072120Z 19018KT 9999 FEW033 08/04 Q0979 20.7mph 8°C 4°C 7.0°C
07/01/23 20:50 EGPK 072050Z 19019KT 9999 FEW036 08/04 Q0979 21.9mph 8°C 4°C 7.0°C
07/01/23 20:20 EGPK 072020Z 20018G28KT 9999 BKN035 08/04 Q0980 20.7mph 32.2mph 8°C 4°C 7.0°C
07/01/23 19:50 EGPK 071950Z 19017G27KT 9999 BKN036 08/04 Q0980 19.6mph 31.1mph 8°C 4°C 7.0°C
07/01/23 19:20 EGPK 071920Z 18018G32KT 9999 FEW035 BKN046 08/04 Q0980 20.7mph 36.8mph 8°C 4°C 7.0°C
07/01/23 18:50 EGPK 071850Z 18016KT 9999 FEW030 BKN042 08/04 Q0980 18.4mph 8°C 4°C 7.0°C
07/01/23 18:20 EGPK 071820Z 18017KT 9999 FEW038 08/04 Q0980 19.6mph 8°C 4°C 7.0°C
07/01/23 17:50 EGPK 071750Z 18015KT 9999 FEW038 08/04 Q0980 17.3mph 8°C 4°C 7.0°C
07/01/23 17:20 EGPK 071720Z 18015KT 9999 FEW023 07/04 Q0981 17.3mph 7°C 4°C 6.0°C
07/01/23 16:50 EGPK 071650Z 17013KT 120V180 CAVOK 07/04 Q0981 15.0mph 7°C 4°C 6.0°C
07/01/23 16:20 EGPK 071620Z 18014KT 9999 FEW035 07/04 Q0982 16.1mph 7°C 4°C 6.0°C
07/01/23 15:50 EGPK 071550Z 18017KT 9999 FEW033 08/04 Q0982 19.6mph 8°C 4°C 7.0°C
07/01/23 15:20 EGPK 071520Z 18018KT 9999 FEW033 08/05 Q0982 20.7mph 8°C 5°C 7.3°C
07/01/23 14:50 EGPK 071450Z 17019KT 9999 FEW033 08/05 Q0982 21.9mph 8°C 5°C 7.3°C
07/01/23 14:20 EGPK 071420Z 17015KT 9999 -RA FEW015 SCT033 08/05 Q0982 -RA 17.3mph 8°C 5°C 7.3°C
07/01/23 13:50 EGPK 071350Z 17016KT 9999 SCT022 09/05 Q0983 18.4mph 9°C 5°C 8.3°C
07/01/23 12:50 EGPK 071250Z 19014KT 9999 FEW033 09/04 Q0984 16.1mph 9°C 4°C 8.0°C
07/01/23 11:50 EGPK 071150Z 20009KT 9999 FEW033 09/06 Q0986 10.4mph 9°C 6°C 8.6°C
07/01/23 11:20 EGPK 071120Z 20012KT 9999 -RA FEW017 BKN034 OVC044 08/06 Q0986 -RA 13.8mph 8°C 6°C 7.6°C
07/01/23 10:50 EGPK 071050Z 15004KT 120V190 9000 -RA FEW009 BKN015 08/07 Q0986 -RA 4.6mph 8°C 7°C 8.0°C
07/01/23 10:20 EGPK 071020Z 17004KT 140V200 4000 -RA BR SCT008 BKN013 08/07 Q0986 -RA BR 4.6mph 8°C 7°C 8.0°C
07/01/23 09:50 EGPK 070950Z 11006KT 9999 FEW020 BKN040 08/06 Q0986 6.9mph 8°C 6°C 7.6°C
07/01/23 09:20 EGPK 070920Z 13006KT 9999 FEW020 BKN040 08/06 Q0987 6.9mph 8°C 6°C 7.6°C
07/01/23 08:50 EGPK 070850Z 14008KT 9999 FEW022 BKN044 08/06 Q0987 9.2mph 8°C 6°C 7.6°C
07/01/23 07:50 EGPK 070750Z 12009KT 9999 -RA FEW022 BKN046 08/07 Q0987 -RA 10.4mph 8°C 7°C 8.0°C
07/01/23 07:20 EGPK 070720Z 11007KT 9999 -RA FEW020 BKN045 07/07 Q0988 -RA 8.1mph 7°C 7°C 7.0°C
07/01/23 06:50 EGPK 070650Z 16005KT 9999 -RA FEW024 BKN045 08/07 Q0989 -RA 5.8mph 8°C 7°C 8.0°C
07/01/23 06:20 EGPK 070620Z 15006KT 9999 -RA FEW024 BKN045 08/07 Q0989 -RA 6.9mph 8°C 7°C 8.0°C
07/01/23 05:50 EGPK 070550Z 18004KT 9999 -RA SCT040 08/07 Q0989 -RA 4.6mph 8°C 7°C 8.0°C